Time;durP1;ratioP1;P1;durP2;ratioP2;P2;SDS_P1;SDS_P2;PMS_P1;PMS_P2;Temp;Humidity;BMP_temperature;BMP_pressure;BME280_temperature;BME280_humidity;BME280_pressure;Samples;Min_cycle;Max_cycle;Signal;HPM_P1;HPM_P2
2023/02/21 02:13:55;;;;;;;11.10;1.70;;;7.40;99.90;;;4.83;100.00;100391.25;4965137;28;20059;-80
2023/02/21 02:16:47;;;;;;;11.65;1.75;;;6.40;99.90;;;4.81;100.00;100398.25;4993549;28;20045;-81
2023/02/21 02:19:27;;;;;;;13.07;2.25;;;6.40;99.90;;;4.93;100.00;100395.31;4967339;23;20578;-80
2023/02/21 02:22:26;;;;;;;12.45;1.80;;;6.50;99.90;;;5.02;100.00;100405.47;4980043;28;20058;-81
2023/02/21 02:25:26;;;;;;;16.65;1.55;;;6.50;99.90;;;5.06;100.00;100414.09;4952286;28;20037;-80
2023/02/21 02:28:16;;;;;;;12.82;1.45;;;6.60;99.90;;;5.05;100.00;100414.97;4972675;28;20049;-81
2023/02/21 02:30:48;;;;;;;14.55;1.95;;;6.60;99.90;;;5.04;100.00;100421.09;4968079;28;20429;-82
2023/02/21 02:34:06;;;;;;;21.75;2.10;;;6.60;99.90;;;5.10;99.67;100402.66;4938530;28;20041;-80
2023/02/21 02:36:52;;;;;;;23.70;2.55;;;6.70;99.90;;;5.19;98.80;100420.66;4967705;28;20038;-81
2023/02/21 02:39:20;;;;;;;18.17;1.77;;;6.70;99.90;;;5.17;97.93;100417.22;4924426;28;20046;-82
2023/02/21 02:42:08;;;;;;;26.45;2.53;;;6.70;99.90;;;5.22;97.57;100424.94;4924913;28;20037;-81
2023/02/21 02:44:40;;;;;;;25.60;3.28;;;6.70;99.90;;;5.22;97.04;100430.16;4931490;28;20043;-79
2023/02/21 02:47:29;;;;;;;16.67;1.92;;;6.70;99.90;;;5.14;96.87;100415.56;4942258;28;20044;-83
2023/02/21 02:49:57;;;;;;;18.65;2.25;;;6.70;99.90;;;5.16;96.79;100419.88;4982738;28;20026;-79
2023/02/21 02:52:23;;;;;;;8.90;1.55;;;6.70;99.90;;;5.14;96.12;100417.34;4969412;28;20127;-81
2023/02/21 02:55:30;;;;;;;18.55;2.03;;;6.70;99.90;;;5.18;95.52;100423.31;4959524;28;20038;-81
2023/02/21 02:57:56;;;;;;;15.90;2.15;;;6.70;99.90;;;5.17;95.26;100417.22;4942009;28;20048;-81
2023/02/21 03:00:22;;;;;;;11.65;2.15;;;6.70;99.90;;;5.14;95.11;100414.72;4934286;28;20046;-81
2023/02/21 03:03:20;;;;;;;21.30;2.17;;;6.70;99.90;;;5.19;95.21;100423.25;4954135;28;20025;-82
2023/02/21 03:06:22;;;;;;;15.35;1.95;;;6.70;99.90;;;5.16;95.01;100409.44;4987226;28;20033;-82
2023/02/21 03:09:10;;;;;;;15.77;3.42;;;6.70;99.90;;;5.08;95.16;100407.91;4943157;28;20037;-81
2023/02/21 03:12:01;;;;;;;22.00;2.55;;;6.60;99.90;;;5.03;95.00;100398.50;4982366;28;20034;-80
2023/02/21 03:14:40;;;;;;;17.80;3.28;;;6.60;99.90;;;5.03;95.07;100409.81;4981240;28;20529;-80
2023/02/21 03:17:12;;;;;;;37.38;3.60;;;6.40;99.90;;;5.05;95.63;100428.88;4941848;28;20467;-81
2023/02/21 03:19:48;;;;;;;23.05;3.03;;;6.60;99.90;;;5.02;95.36;100435.94;4955325;28;20042;-81
2023/02/21 03:22:20;;;;;;;20.85;2.33;;;6.50;99.90;;;4.94;95.52;100429.16;4904465;28;20591;-81
2023/02/21 03:25:07;;;;;;;;;;;;;;;;;;;;;
2023/02/21 03:27:36;;;;;;;27.30;2.75;;;6.50;99.90;;;4.90;96.12;100429.31;4890726;28;20429;-80
2023/02/21 03:30:30;;;;;;;18.58;2.80;;;6.50;99.90;;;4.85;96.17;100423.38;4912901;28;20049;-82
2023/02/21 03:32:57;;;;;;;24.95;2.72;;;6.50;99.90;;;4.84;96.45;100427.75;4912441;28;20046;-81
2023/02/21 03:35:29;;;;;;;13.77;2.38;;;6.40;99.90;;;4.78;96.30;100427.06;4938456;28;20052;-80
2023/02/21 03:37:56;;;;;;;25.90;2.90;;;6.40;99.90;;;4.82;96.69;100428.69;4933551;28;20042;-80
2023/02/21 03:40:35;;;;;;;24.98;3.10;;;6.40;99.90;;;4.80;96.29;100428.72;4941535;28;20056;-80
2023/02/21 03:43:05;;;;;;;31.02;2.72;;;6.40;99.90;;;4.80;96.27;100431.31;4997634;28;20466;-80
2023/02/21 03:45:42;;;;;;;29.85;3.28;;;6.40;99.90;;;4.85;95.96;100436.41;4977865;28;20038;-82
2023/02/21 03:48:22;;;;;;;26.42;3.30;;;;;;;4.79;95.74;100439.19;4930967;28;20041;-82
2023/02/21 03:51:13;;;;;;;31.88;4.35;;;6.40;99.90;;;4.77;96.00;100439.22;4918541;28;20045;-82
2023/02/21 03:53:42;;;;;;;27.63;2.70;;;;;;;4.76;95.71;100444.50;4928953;28;20052;-81
2023/02/21 03:56:20;;;;;;;17.92;2.35;;;6.30;99.90;;;4.66;95.54;100439.50;4943940;28;20059;-82
2023/02/21 03:58:45;;;;;;;21.48;3.00;;;6.30;99.90;;;4.66;95.84;100439.50;4939776;28;20031;-81
2023/02/21 04:01:35;;;;;;;33.20;4.25;;;;;;;4.65;95.93;100429.13;4932119;28;20067;-81
2023/02/21 04:04:01;;;;;;;28.60;2.92;;;6.20;99.90;;;4.64;95.85;100423.03;4908652;28;20122;-83
2023/02/21 04:06:27;;;;;;;22.20;3.67;;;6.30;99.90;;;4.69;95.37;100442.06;4953296;28;20128;-81
2023/02/21 04:08:53;;;;;;;17.27;3.00;;;6.30;99.90;;;4.65;95.11;100440.41;4968144;28;20093;-79
2023/02/21 04:11:27;;;;;;;32.10;3.03;;;6.20;99.90;;;4.61;95.73;100459.66;4933135;28;20502;-81
2023/02/21 04:13:53;;;;;;;30.70;3.45;;;6.20;99.90;;;4.60;95.40;100442.31;4925840;28;20034;-80
2023/02/21 04:16:19;;;;;;;25.35;2.60;;;6.20;99.90;;;4.61;95.52;100430.13;4969259;28;20100;-81
2023/02/21 04:18:45;;;;;;;27.35;3.00;;;6.20;99.90;;;4.61;95.67;100436.19;4957631;28;20090;-79
2023/02/21 04:21:22;;;;;;;23.77;3.55;;;6.20;99.90;;;4.65;95.65;100450.00;4973320;28;20124;-81
2023/02/21 04:24:01;;;;;;;;;;;;;;;;;;;;;
2023/02/21 04:26:29;;;;;;;25.08;2.58;;;6.30;99.90;;;4.81;95.22;100447.81;4963277;28;20392;-82
2023/02/21 04:28:55;;;;;;;23.88;3.42;;;6.40;99.90;;;4.91;95.13;100447.53;4920494;28;20030;-80
2023/02/21 04:31:27;;;;;;;35.58;4.13;;;6.50;99.90;;;5.01;95.33;100437.72;4916966;28;20124;-82
2023/02/21 04:33:52;;;;;;;18.58;2.83;;;6.50;99.90;;;5.04;94.66;100429.78;4932975;28;20026;-81
2023/02/21 04:36:18;;;;;;;24.52;3.22;;;6.60;99.90;;;5.05;94.63;100444.53;4950683;28;20473;-81
2023/02/21 04:38:44;;;;;;;39.45;4.25;;;6.50;99.90;;;5.04;94.39;100455.88;4941019;28;20100;-79
2023/02/21 04:41:10;;;;;;;23.33;2.95;;;6.50;99.90;;;4.98;93.68;100461.25;4941263;28;20048;-82
2023/02/21 04:43:45;;;;;;;24.15;2.72;;;6.60;99.90;;;5.02;94.09;100470.72;4936707;28;20068;-81
2023/02/21 04:46:15;;;;;;;26.60;3.70;;;6.60;99.90;;;5.06;94.01;100461.91;4964921;28;20039;-82
2023/02/21 04:48:47;;;;;;;22.40;2.50;;;6.60;99.90;;;5.14;93.70;100474.75;4922226;28;20041;-81
2023/02/21 04:51:15;;;;;;;18.27;3.33;;;6.70;99.90;;;5.12;94.12;100474.78;4923119;28;20550;-80
2023/02/21 04:53:52;;;;;;;20.60;2.63;;;6.70;99.90;;;5.16;93.72;100478.16;4937453;28;20042;-82
2023/02/21 04:56:26;;;;;;;25.50;3.78;;;6.70;99.90;;;5.17;93.78;100476.41;4926366;28;20049;-80
2023/02/21 04:59:03;;;;;;;24.23;4.43;;;6.70;99.90;;;5.19;93.73;100482.44;4947940;28;20113;-81
2023/02/21 05:01:41;;;;;;;26.67;2.90;;;6.70;99.90;;;5.18;93.09;100465.91;4970325;28;20095;-79
2023/02/21 05:04:16;;;;;;;26.83;3.45;;;;;;;5.17;92.69;100479.88;4931508;28;20035;-83
2023/02/21 05:06:42;;;;;;;26.20;3.70;;;6.70;99.90;;;5.18;93.03;100478.13;4961604;28;20073;-81
2023/02/21 05:09:07;;;;;;;20.35;3.30;;;6.70;99.90;;;5.14;92.66;100464.31;4932512;28;20560;-82
2023/02/21 05:11:34;;;;;;;39.45;4.95;;;6.70;99.90;;;5.20;92.62;100482.38;4918935;28;20052;-81
2023/02/21 05:14:18;;;;;;;;;;;;;;;;;;;;;
2023/02/21 05:16:47;;;;;;;25.42;3.35;;;6.70;99.90;;;5.12;92.70;100487.84;4958294;28;20440;-81
2023/02/21 05:19:25;;;;;;;28.92;3.83;;;6.70;99.90;;;5.13;92.49;100479.09;4895591;28;1233694;-81
2023/02/21 05:21:56;;;;;;;24.55;4.47;;;6.70;99.90;;;5.01;92.32;100458.59;4952574;28;20089;-82
2023/02/21 05:24:41;;;;;;;38.13;4.25;;;6.60;99.90;;;5.01;92.49;100482.06;4924172;28;20052;-80
2023/02/21 05:27:16;;;;;;;29.23;4.20;;;6.60;99.90;;;4.95;92.57;100487.44;4939419;28;20490;-80
2023/02/21 05:29:54;;;;;;;53.55;4.28;;;6.50;99.90;;;4.93;92.79;100486.63;4912943;28;20046;-80
2023/02/21 05:32:21;;;;;;;17.02;3.13;;;6.50;99.90;;;4.93;92.95;100477.03;4930537;28;20030;-81
2023/02/21 05:34:49;;;;;;;28.27;3.10;;;6.50;99.90;;;4.89;93.42;100487.63;4961630;28;20061;-81
2023/02/21 05:37:24;;;;;;;38.88;3.90;;;6.40;99.90;;;4.90;93.28;100476.25;4946279;28;20049;-80
2023/02/21 05:39:50;;;;;;;19.23;3.22;;;6.40;99.90;;;4.75;93.50;100468.84;4899385;28;20402;-80
2023/02/21 05:42:16;;;;;;;35.83;3.92;;;6.40;99.90;;;4.75;93.83;100485.34;4983611;28;20030;-81
2023/02/21 05:44:47;;;;;;;33.75;4.00;;;6.30;99.90;;;4.74;94.02;100496.69;4938988;28;20041;-80
2023/02/21 05:47:14;;;;;;;24.80;3.80;;;6.30;99.90;;;4.73;94.34;100495.84;4902986;28;20060;-80
2023/02/21 05:49:41;;;;;;;33.30;3.72;;;6.30;99.90;;;4.75;94.89;100510.59;4973393;28;20034;-81
2023/02/21 05:52:19;;;;;;;31.15;4.18;;;6.30;99.90;;;4.81;95.25;100511.28;4954543;28;20946;-81
2023/02/21 05:54:44;;;;;;;28.33;4.25;;;6.40;99.90;;;4.83;95.32;100511.25;4954901;28;20113;-80
2023/02/21 05:57:10;;;;;;;17.23;3.50;;;6.40;99.90;;;4.78;94.95;100515.75;4955264;28;20585;-82
2023/02/21 05:59:38;;;;;;;34.28;3.80;;;6.30;99.90;;;4.72;95.00;100512.38;4927113;28;20050;-81
2023/02/21 06:02:14;;;;;;;28.60;3.60;;;6.30;99.90;;;4.66;95.16;100507.31;4965647;28;20081;-81
2023/02/21 06:04:57;;;;;;;;;;;6.30;99.90;;;4.60;95.58;100504.00;4930847;28;20038;-81
2023/02/21 06:07:30;;;;;;;34.63;4.63;;;6.20;99.90;;;4.59;95.51;100503.16;4965585;28;19928;-82
2023/02/21 06:09:56;;;;;;;37.90;4.55;;;6.20;99.90;;;4.57;95.96;100520.59;4947937;28;20129;-81
2023/02/21 06:12:22;;;;;;;37.08;4.82;;;6.10;99.90;;;4.57;95.92;100519.75;4919733;28;20499;-80
2023/02/21 06:14:55;;;;;;;29.13;3.75;;;6.20;99.90;;;4.58;96.21;100506.69;4924055;28;20117;-81
2023/02/21 06:17:21;;;;;;;44.85;4.55;;;6.10;99.90;;;4.63;96.17;100538.69;4951336;28;20685;-81
2023/02/21 06:19:49;;;;;;;32.30;4.15;;;6.20;99.90;;;4.65;96.21;100549.09;4936125;28;20073;-80
2023/02/21 06:22:15;;;;;;;31.85;4.20;;;6.20;99.90;;;4.66;96.40;100543.84;4907009;28;20608;-80
2023/02/21 06:24:48;;;;;;;33.20;4.10;;;6.20;99.90;;;4.65;96.21;100544.75;4940481;28;20046;-81
2023/02/21 06:27:14;;;;;;;33.15;4.05;;;6.20;99.90;;;4.72;95.89;100545.44;4932989;28;20030;-81
2023/02/21 06:29:43;;;;;;;27.63;3.85;;;6.20;99.90;;;4.69;95.56;100545.53;5006243;28;20454;-81
2023/02/21 06:32:09;;;;;;;27.95;4.15;;;6.20;99.90;;;4.71;95.07;100539.38;4967537;28;20152;-82
2023/02/21 06:34:42;;;;;;;24.77;3.60;;;6.20;99.90;;;4.75;94.71;100550.56;4938503;28;20034;-82
2023/02/21 06:37:07;;;;;;;47.22;5.00;;;6.20;99.90;;;4.79;94.52;100561.78;4941208;28;20082;-81
2023/02/21 06:39:33;;;;;;;37.90;4.32;;;6.20;99.90;;;4.81;94.08;100560.00;4927723;28;20473;-81
2023/02/21 06:42:15;;;;;;;28.05;4.18;;;6.30;99.90;;;4.80;94.29;100561.75;4907592;28;20157;-80
2023/02/21 06:44:48;;;;;;;47.55;5.28;;;6.30;99.90;;;4.89;93.71;100560.66;4922844;28;20044;-83
2023/02/21 06:47:15;;;;;;;41.58;4.70;;;6.30;99.90;;;5.00;93.44;100563.00;4942917;28;20175;-81
2023/02/21 06:49:41;;;;;;;27.38;3.92;;;6.40;99.90;;;5.01;92.86;100573.41;4888369;28;20034;-82
2023/02/21 06:52:16;;;;;;;36.15;4.55;;;6.40;99.90;;;5.02;92.87;100580.31;4945043;28;20046;-82
2023/02/21 06:54:41;;;;;;;26.52;4.07;;;6.40;99.90;;;5.04;92.88;100588.97;4922989;28;20033;-82
2023/02/21 06:57:08;;;;;;;34.65;4.72;;;6.40;99.90;;;5.25;92.33;100591.94;4944805;28;20085;-82
2023/02/21 06:59:33;;;;;;;27.15;3.30;;;6.50;99.90;;;5.53;91.64;100594.63;4916621;28;20037;-81
2023/02/21 07:02:42;;;;;;;29.40;4.07;;;6.70;99.90;;;6.16;88.66;100601.53;4908770;28;20470;-82
2023/02/21 07:04:52;;;;;;;43.17;4.43;;;6.90;99.90;;;6.76;85.62;100612.72;4932882;28;20038;-82
2023/02/21 07:07:18;;;;;;;17.85;3.10;;;7.00;99.90;;;6.08;84.72;100603.50;4971977;28;20447;-81
2023/02/21 07:09:43;;;;;;;40.13;5.07;;;7.00;99.90;;;5.84;85.71;100602.44;4959815;28;20053;-81
2023/02/21 07:12:18;;;;;;;40.22;4.80;;;7.00;99.90;;;5.84;86.87;100615.50;4972579;28;20467;-82
2023/02/21 07:14:44;;;;;;;30.27;4.40;;;6.90;99.90;;;5.59;87.67;100606.66;4950279;28;20159;-81
2023/02/21 07:17:13;;;;;;;38.90;5.00;;;6.80;99.90;;;5.55;88.42;100596.31;4967136;28;20689;-81
2023/02/21 07:19:42;;;;;;;32.75;4.18;;;6.90;99.90;;;5.57;88.98;100595.38;4976265;28;20108;-83
2023/02/21 07:22:11;;;;;;;38.15;5.47;;;6.90;99.90;;;5.73;88.82;100607.13;4953317;28;20049;-80
2023/02/21 07:24:37;;;;;;;28.27;3.90;;;6.90;99.90;;;6.06;88.33;100626.22;4967929;28;20034;-80
2023/02/21 07:27:19;;;;;;;28.08;3.88;;;7.00;99.90;;;6.70;86.19;100630.41;4925145;28;20038;-81
2023/02/21 07:30:13;;;;;;;32.38;4.30;;;7.40;99.90;;;8.29;81.00;100646.63;4931736;28;20046;-83
2023/02/21 07:32:39;;;;;;;22.30;3.33;;;7.80;99.90;;;8.58;77.04;100662.16;4913763;28;20037;-82
2023/02/21 07:35:08;;;;;;;40.25;5.22;;;8.20;99.90;;;9.10;75.29;100648.69;4917509;28;20033;-82
2023/02/21 07:37:36;;;;;;;35.22;4.78;;;8.50;99.90;;;8.70;75.00;100655.53;4911253;28;20033;-80
2023/02/21 07:40:05;;;;;;;40.58;5.00;;;8.50;99.90;;;8.14;75.74;100655.94;4939682;28;20039;-82
2023/02/21 07:42:32;;;;;;;29.80;3.88;;;8.50;99.90;;;8.70;76.42;100680.94;4951790;28;20094;-81
2023/02/21 07:45:08;;;;;;;26.00;4.53;;;;;;;9.14;74.46;100687.03;4994319;28;20542;-81
2023/02/21 07:47:34;;;;;;;28.27;4.03;;;8.90;99.90;;;9.75;72.04;100667.78;4987054;28;20034;-82
2023/02/21 07:50:09;;;;;;;27.45;5.10;;;9.10;99.90;;;9.58;71.64;100670.31;4943986;28;20032;-81
2023/02/21 07:52:48;;;;;;;33.23;4.80;;;9.10;99.90;;;8.66;73.40;100667.09;4974504;28;20048;-81
2023/02/21 07:55:14;;;;;;;33.97;4.80;;;9.10;99.90;;;8.43;75.20;100673.25;4964717;28;20124;-81
2023/02/21 07:57:40;;;;;;;45.53;5.82;;;9.10;99.90;;;9.62;73.97;100683.25;4942471;28;20048;-81
2023/02/21 08:00:07;;;;;;;38.17;4.57;;;9.50;99.90;;;9.88;71.33;100675.16;4932595;28;20582;-81
2023/02/21 08:02:35;;;;;;;32.03;5.25;;;9.70;99.90;;;9.92;70.39;100674.94;4950704;28;20074;-81
2023/02/21 08:05:08;;;;;;;32.65;5.00;;;10.00;99.90;;;10.03;70.00;100675.31;4943846;28;20030;-81
2023/02/21 08:07:37;;;;;;;26.88;4.45;;;10.20;99.90;;;10.07;69.74;100695.28;4934528;28;20650;-80
2023/02/21 08:10:26;;;;;;;28.13;5.05;;;10.10;99.90;;;9.63;71.54;100689.34;4932465;28;20039;-81
2023/02/21 08:12:54;;;;;;;41.63;6.80;;;10.10;99.90;;;9.62;71.09;100693.75;4967524;28;20068;-81
2023/02/21 08:15:21;;;;;;;24.10;3.20;;;10.10;99.90;;;9.79;70.51;100700.91;4924438;28;20061;-83
2023/02/21 08:17:51;;;;;;;28.20;4.20;;;10.10;99.90;;;9.50;70.65;100699.53;4963406;28;20037;-83
2023/02/21 08:20:17;;;;;;;44.25;5.28;;;10.20;99.90;;;9.59;71.12;100707.06;4945222;28;20033;-81
2023/02/21 08:22:43;;;;;;;33.10;4.00;;;10.20;99.90;;;9.50;70.93;100715.31;4917618;28;20039;-83
2023/02/21 08:25:11;;;;;;;38.55;5.25;;;10.20;99.90;;;9.51;71.44;100717.03;4947966;28;20034;-81
2023/02/21 08:27:52;;;;;;;37.17;4.90;;;10.30;99.90;;;9.77;70.65;100717.69;4924394;28;20053;-80
2023/02/21 08:30:25;;;;;;;26.33;5.10;;;10.30;99.90;;;9.34;70.98;100732.66;4911816;28;20263;-81
2023/02/21 08:32:51;;;;;;;35.50;4.85;;;10.10;99.90;;;8.60;72.43;100719.84;4954339;28;20038;-82
2023/02/21 08:35:19;;;;;;;39.35;5.97;;;9.70;99.90;;;8.10;74.34;100712.03;4924805;28;20044;-81
2023/02/21 08:38:01;;;;;;;32.60;5.88;;;9.70;99.90;;;9.01;74.89;100727.84;4917976;28;20113;-81
2023/02/21 08:40:31;;;;;;;31.20;4.40;;;10.00;99.90;;;9.20;73.15;100741.97;4955360;28;20092;-82
2023/02/21 08:42:59;;;;;;;36.38;5.55;;;10.00;99.90;;;8.55;73.78;100732.25;4959504;28;20035;-82
2023/02/21 08:45:27;;;;;;;35.58;5.95;;;9.70;99.90;;;8.21;75.45;100730.88;4932614;28;20094;-82
2023/02/21 08:47:57;;;;;;;24.17;4.97;;;9.40;99.90;;;7.77;76.52;100713.19;4922220;28;20026;-82
2023/02/21 08:50:27;;;;;;;27.90;4.70;;;9.10;99.90;;;7.83;77.73;100729.63;4937605;28;20084;-83
2023/02/21 08:52:54;;;;;;;37.65;5.47;;;9.30;99.90;;;8.39;76.70;100737.22;4941892;28;20034;-82
2023/02/21 08:55:31;;;;;;;40.25;5.93;;;9.60;99.90;;;9.04;75.78;100741.69;4956288;28;20085;-82
2023/02/21 08:57:57;;;;;;;32.08;4.35;;;10.10;99.90;;;9.27;72.88;100755.69;4923378;28;20061;-80
2023/02/21 09:00:28;;;;;;;26.02;4.43;;;10.30;99.90;;;9.28;72.46;100756.56;4976123;28;20029;-82
2023/02/21 09:02:58;;;;;;;51.13;6.25;;;10.60;99.90;;;9.39;73.04;100764.84;4958722;28;20084;-82
2023/02/21 09:05:28;;;;;;;37.33;4.88;;;10.40;99.90;;;9.00;73.39;100758.50;4956383;28;20042;-82
2023/02/21 09:08:00;;;;;;;29.05;4.20;;;10.40;99.90;;;9.37;72.56;100766.69;4932343;28;20743;-83
2023/02/21 09:10:32;;;;;;;33.22;4.65;;;10.70;99.90;;;9.89;72.38;100796.03;4971628;28;20030;-82
2023/02/21 09:13:06;;;;;;;37.88;5.20;;;10.90;99.90;;;9.68;71.21;100763.66;4933582;28;20507;-81
2023/02/21 09:15:32;;;;;;;37.03;4.05;;;10.70;99.90;;;9.47;71.82;100775.06;4966330;28;20533;-77
2023/02/21 09:17:59;;;;;;;28.02;4.53;;;10.50;99.90;;;9.14;72.25;100783.38;4972950;28;20033;-80
2023/02/21 09:20:31;;;;;;;27.80;5.13;;;10.60;99.90;;;9.44;72.60;100786.56;5011178;28;20462;-79
2023/02/21 09:22:57;;;;;;;37.97;4.28;;;10.40;99.90;;;8.88;73.88;100784.41;5006739;28;20033;-77
2023/02/21 09:25:24;;;;;;;32.40;4.88;;;10.30;99.90;;;9.19;73.48;100781.41;4991139;28;20104;-79
2023/02/21 09:27:52;;;;;;;28.42;5.65;;;10.20;99.90;;;8.79;73.60;100773.34;4996236;28;20037;-77
2023/02/21 09:30:28;;;;;;;27.33;3.95;;;10.10;99.90;;;8.71;75.15;100799.03;4999666;28;20390;-78
2023/02/21 09:32:55;;;;;;;36.08;4.50;;;9.90;99.90;;;8.51;76.21;100793.66;4965792;28;20425;-78
2023/02/21 09:35:24;;;;;;;24.25;4.47;;;9.80;99.90;;;8.40;76.96;100792.28;4968187;28;20123;-78
2023/02/21 09:37:53;;;;;;;26.23;4.93;;;9.80;99.90;;;8.36;76.94;100797.69;4900999;28;20065;-78
2023/02/21 09:41:01;;;;;;;27.55;4.43;;;9.60;99.90;;;8.00;76.61;100790.19;4987979;28;20056;-78
2023/02/21 09:43:44;;;;;;;38.53;5.78;;;9.30;99.90;;;7.64;78.24;100798.41;4991871;28;20042;-78
2023/02/21 09:46:21;;;;;;;42.30;5.80;;;9.10;99.90;;;7.65;79.79;100799.28;4982647;28;20034;-78
2023/02/21 09:48:51;;;;;;;;;;;9.00;99.90;;;7.36;79.87;100791.47;4969231;28;20030;-78
2023/02/21 09:51:24;;;;;;;40.05;5.65;;;8.80;99.90;;;7.20;80.17;100795.47;5014200;28;19988;-79
2023/02/21 09:53:59;;;;;;;44.50;5.32;;;8.70;99.90;;;7.21;80.64;100805.00;4966776;28;20030;-78
2023/02/21 09:56:40;;;;;;;32.77;4.53;;;8.70;99.90;;;7.15;81.13;100811.31;4985921;28;20045;-78
2023/02/21 09:59:12;;;;;;;30.05;4.28;;;8.60;99.90;;;7.15;81.68;100808.72;5003658;28;20793;-78
2023/02/21 10:02:09;;;;;;;37.20;5.03;;;8.70;99.90;;;7.21;82.20;100814.66;4981154;28;20037;-76
2023/02/21 10:04:54;;;;;;;32.13;4.20;;;8.60;99.90;;;7.15;82.70;100821.78;4998046;28;20044;-79
2023/02/21 10:08:04;;;;;;;34.67;3.80;;;8.60;99.90;;;7.16;82.87;100818.25;4968636;28;20042;-78
2023/02/21 10:10:57;;;;;;;33.38;4.72;;;8.70;99.90;;;7.23;83.00;100820.69;4976249;28;20153;-78
2023/02/21 10:13:45;;;;;;;32.38;5.03;;;8.60;99.90;;;7.25;82.98;100826.75;4980629;28;20032;-78
2023/02/21 10:16:36;;;;;;;35.83;4.57;;;8.60;99.90;;;7.24;82.46;100831.13;4974927;28;20135;-78
2023/02/21 10:19:28;;;;;;;30.45;4.10;;;8.60;99.90;;;7.01;81.93;100829.22;5011414;28;20160;-78
2023/02/21 10:21:57;;;;;;;24.63;4.32;;;8.50;99.90;;;7.01;82.24;100825.75;4988874;28;20097;-78
2023/02/21 10:24:28;;;;;;;40.67;4.88;;;8.50;99.90;;;6.95;81.20;100827.66;4970483;28;20034;-78
2023/02/21 10:27:30;;;;;;;28.90;4.00;;;8.50;99.90;;;7.09;81.88;100835.06;4961001;28;20037;-78
2023/02/21 10:30:04;;;;;;;33.00;4.13;;;8.50;99.90;;;7.06;81.67;100831.69;4961531;28;20141;-77
2023/02/21 10:32:34;;;;;;;25.85;4.95;;;8.50;99.90;;;6.97;81.73;100822.34;4973497;28;20081;-79
2023/02/21 10:35:03;;;;;;;27.25;3.75;;;8.50;99.90;;;7.05;82.17;100825.59;4970857;28;20038;-78
2023/02/21 10:37:43;;;;;;;46.28;6.05;;;8.40;99.90;;;7.05;81.64;100840.44;4994834;28;20034;-79
2023/02/21 10:40:34;;;;;;;29.45;4.15;;;8.40;99.90;;;7.01;81.95;100834.44;4995897;28;20469;-78
2023/02/21 10:43:31;;;;;;;33.80;5.65;;;8.50;99.90;;;6.99;81.21;100841.47;4975394;28;20032;-78
2023/02/21 10:46:24;;;;;;;;;;;8.40;99.90;;;6.99;81.66;100849.34;4987255;28;20130;-78
2023/02/21 10:48:58;;;;;;;31.35;5.65;;;8.40;99.90;;;6.98;81.72;100839.78;4987903;28;19927;-77
2023/02/21 10:51:39;;;;;;;28.05;4.72;;;8.40;99.90;;;6.97;81.18;100856.38;4985899;28;20034;-78
2023/02/21 10:54:24;;;;;;;37.97;4.63;;;8.40;99.90;;;7.05;80.51;100851.78;4969750;28;20712;-78
2023/02/21 10:56:52;;;;;;;30.73;4.95;;;8.50;99.90;;;7.07;81.06;100844.72;4991067;28;20038;-79
2023/02/21 10:59:41;;;;;;;48.05;5.03;;;8.50;99.90;;;7.19;82.10;100856.59;4958296;28;20773;-78
2023/02/21 11:02:41;;;;;;;28.02;4.88;;;8.50;99.90;;;7.10;81.37;100864.72;4987730;28;20061;-76
2023/02/21 11:05:18;;;;;;;34.78;5.00;;;8.60;99.90;;;7.15;81.32;100853.22;5013533;28;20096;-77
2023/02/21 11:08:08;;;;;;;29.13;4.55;;;8.50;99.90;;;7.17;81.18;100861.88;5010548;28;20030;-77
2023/02/21 11:10:45;;;;;;;38.50;5.63;;;8.60;99.90;;;7.26;81.72;100852.03;4977174;28;20037;-78
2023/02/21 11:13:21;;;;;;;28.27;4.07;;;8.60;99.90;;;7.28;81.71;100868.53;4961737;28;20037;-79
2023/02/21 11:16:12;;;;;;;42.33;6.15;;;8.60;99.90;;;7.22;80.88;100856.50;4972707;28;20034;-76
2023/02/21 11:18:41;;;;;;;32.13;4.57;;;8.70;99.90;;;7.28;80.96;100858.94;4955614;28;20053;-79
2023/02/21 11:21:19;;;;;;;31.65;5.05;;;8.70;99.90;;;7.26;80.37;100859.91;4991336;28;20049;-77
2023/02/21 11:24:01;;;;;;;34.22;4.72;;;8.70;99.90;;;7.37;81.30;100855.19;5002427;28;20030;-77
2023/02/21 11:26:51;;;;;;;30.17;4.72;;;8.70;99.90;;;7.37;79.83;100855.19;4967013;28;20048;-78
2023/02/21 11:29:25;;;;;;;30.80;4.65;;;8.80;99.90;;;7.38;79.45;100855.13;4970439;28;20065;-78
2023/02/21 11:32:01;;;;;;;29.45;3.85;;;8.80;99.90;;;7.39;80.14;100861.22;4977427;28;20033;-78
2023/02/21 11:34:30;;;;;;;40.35;5.50;;;8.80;99.90;;;7.49;80.58;100856.53;4987123;28;20066;-78
2023/02/21 11:37:06;;;;;;;37.60;4.93;;;8.80;99.90;;;7.40;80.20;100858.53;4978968;28;20092;-78
2023/02/21 11:39:35;;;;;;;26.65;3.95;;;8.70;99.90;;;7.17;79.93;100856.66;4985198;28;20055;-78
2023/02/21 11:42:05;;;;;;;35.28;4.32;;;;;;;7.14;80.72;100854.09;4958384;28;20036;-80
2023/02/21 11:44:44;;;;;;;32.33;4.70;;;8.60;99.90;;;7.14;80.33;100871.59;4988002;28;20030;-78
2023/02/21 11:47:25;;;;;;;24.20;4.68;;;8.60;99.90;;;7.18;80.22;100868.81;4969400;28;20103;-79
2023/02/21 11:50:19;;;;;;;37.20;5.43;;;8.60;99.90;;;7.24;80.51;100866.94;5003055;28;20100;-80
2023/02/21 11:53:14;;;;;;;33.88;4.93;;;8.60;99.90;;;7.22;79.78;100885.31;4995670;28;20037;-80
2023/02/21 11:56:10;;;;;;;30.75;4.88;;;8.60;99.90;;;7.25;80.01;100866.88;5007177;28;20498;-79
2023/02/21 11:59:03;;;;;;;28.05;4.15;;;8.60;99.90;;;7.16;78.62;100883.72;4977845;28;20055;-79
2023/02/21 12:01:54;;;;;;;30.15;3.53;;;8.60;99.90;;;7.21;80.38;100893.22;4982441;28;20026;-78
2023/02/21 12:04:49;;;;;;;21.48;3.72;;;8.60;99.90;;;7.17;78.84;100880.22;4990396;28;20102;-79
2023/02/21 12:08:00;;;;;;;24.60;4.15;;;8.60;99.90;;;7.15;78.54;100889.88;4995842;28;20076;-79
2023/02/21 12:11:14;;;;;;;20.27;3.95;;;8.60;99.90;;;7.07;78.10;100884.00;4978700;28;20405;-78
2023/02/21 12:14:26;;;;;;;32.38;4.15;;;8.60;99.90;;;7.14;78.69;100882.06;4972076;28;20042;-79
2023/02/21 12:17:32;;;;;;;33.65;4.35;;;8.50;99.90;;;7.12;79.34;100899.59;4999625;28;20045;-79
2023/02/21 12:20:42;;;;;;;30.03;4.20;;;8.50;99.90;;;7.12;79.20;100905.66;5003289;28;20595;-79
2023/02/21 12:23:52;;;;;;;38.90;5.30;;;8.60;99.90;;;7.23;79.78;100904.50;4980134;28;20302;-79
2023/02/21 12:26:37;;;;;;;39.97;6.32;;;8.60;99.90;;;7.23;79.45;100902.72;4973449;28;20095;-79
2023/02/21 12:29:20;;;;;;;38.75;5.03;;;8.60;99.90;;;7.28;80.24;100902.59;4979634;28;20050;-80
2023/02/21 12:32:32;;;;;;;17.35;3.13;;;8.70;99.90;;;7.26;78.92;100899.19;4971903;28;20038;-78
2023/02/21 12:35:47;;;;;;;32.05;4.60;;;8.70;99.90;;;7.18;78.22;100888.94;5011246;28;20038;-78
2023/02/21 12:38:42;;;;;;;33.25;4.55;;;8.70;99.90;;;7.30;78.86;100903.41;4991866;28;20086;-79
2023/02/21 12:41:35;;;;;;;22.17;3.53;;;8.70;99.90;;;7.24;79.06;100903.63;4996825;28;20038;-79
2023/02/21 12:44:25;;;;;;;29.98;4.55;;;8.70;99.90;;;7.23;78.88;100897.50;4998290;28;20550;-79
2023/02/21 12:47:10;;;;;;;18.08;4.20;;;8.60;99.90;;;7.04;77.30;100894.59;4964425;28;20030;-78
2023/02/21 12:50:12;;;;;;;28.52;4.30;;;8.50;99.90;;;6.99;78.05;100912.16;4967844;28;20040;-78
2023/02/21 12:53:02;;;;;;;25.75;3.85;;;8.50;99.90;;;7.07;78.89;100915.44;4970118;28;20040;-77
2023/02/21 12:55:57;;;;;;;26.73;4.50;;;8.60;99.90;;;7.05;78.89;100904.16;4959637;28;20029;-79
2023/02/21 12:59:19;;;;;;;32.58;5.03;;;8.50;99.90;;;7.07;79.32;100920.66;4965404;28;20418;-78
2023/02/21 13:02:03;;;;;;;29.88;3.90;;;8.50;99.90;;;7.05;78.81;100914.63;4987794;28;20028;-79
2023/02/21 13:04:48;;;;;;;31.23;4.80;;;8.40;99.90;;;6.96;78.11;100907.88;4967539;28;20105;-78
2023/02/21 13:07:44;;;;;;;43.10;4.43;;;8.50;99.90;;;7.12;79.50;100921.38;4961154;28;20100;-78
2023/02/21 13:10:28;;;;;;;34.08;4.18;;;8.50;99.90;;;7.15;78.75;100930.94;4991978;28;20440;-78
2023/02/21 13:13:18;;;;;;;25.90;3.97;;;8.50;99.90;;;7.05;77.51;100925.09;4995299;28;20085;-78
2023/02/21 13:15:52;;;;;;;18.52;3.20;;;8.50;99.90;;;7.01;77.72;100923.47;4984910;28;20512;-78
2023/02/21 13:18:46;;;;;;;21.95;4.40;;;8.50;99.90;;;6.98;77.63;100928.78;4953085;28;20091;-78
2023/02/21 13:21:36;;;;;;;23.95;3.83;;;8.40;99.90;;;6.99;77.21;100925.25;4950059;28;20045;-79